createdAt,value
2018-02-21T00:01:15.971Z,87.24
2018-02-21T00:03:43.544Z,87.42
2018-02-21T00:06:11.222Z,87.54
2018-02-21T00:08:38.787Z,87.31
2018-02-21T00:11:06.326Z,87.57
2018-02-21T00:13:34.422Z,87.99
2018-02-21T00:16:01.974Z,88.08
2018-02-21T00:18:29.514Z,88.18
2018-02-21T00:20:57.096Z,88.31
2018-02-21T00:23:24.644Z,88.30
2018-02-21T00:25:52.195Z,88.01
2018-02-21T00:28:20.065Z,87.55
2018-02-21T00:30:47.600Z,87.33
2018-02-21T00:33:15.139Z,87.49
2018-02-21T00:35:42.714Z,87.15
2018-02-21T00:38:10.259Z,87.14
2018-02-21T00:40:37.807Z,87.15
2018-02-21T00:43:05.684Z,87.15
2018-02-21T00:45:33.240Z,87.09
2018-02-21T00:48:00.786Z,86.93
2018-02-21T00:50:28.382Z,86.86
2018-02-21T00:52:55.936Z,87.02
2018-02-21T00:55:23.480Z,86.96
2018-02-21T00:57:51.071Z,87.08
2018-02-21T01:00:18.654Z,87.02
2018-02-21T01:02:46.212Z,87.10
2018-02-21T01:05:13.959Z,86.90
2018-02-21T01:07:41.506Z,86.81
2018-02-21T01:10:09.048Z,86.62
2018-02-21T01:12:36.638Z,86.36
2018-02-21T01:15:04.194Z,86.35
2018-02-21T01:17:31.747Z,86.71
2018-02-21T01:19:59.338Z,87.09
2018-02-21T01:22:26.892Z,87.25
2018-02-21T01:24:54.444Z,87.49
2018-02-21T01:27:22.178Z,87.43
2018-02-21T01:29:49.723Z,87.73
2018-02-21T01:32:17.268Z,88.13
2018-02-21T01:34:44.954Z,88.91
2018-02-21T01:37:12.502Z,88.96
2018-02-21T01:39:40.057Z,89.18
2018-02-21T01:42:07.647Z,88.87
2018-02-21T01:44:35.193Z,88.62
2018-02-21T01:47:02.763Z,88.38
2018-02-21T01:49:30.505Z,88.46
2018-02-21T01:51:58.054Z,88.40
2018-02-21T01:54:25.608Z,88.39
2018-02-21T01:56:53.197Z,88.33
2018-02-21T01:59:20.730Z,88.05
2018-02-21T02:01:48.288Z,88.18
2018-02-21T02:04:15.915Z,88.23
2018-02-21T02:06:43.459Z,88.44
2018-02-21T02:09:11.006Z,88.57
2018-02-21T02:11:38.881Z,88.46
2018-02-21T02:14:06.422Z,88.70
2018-02-21T02:16:33.973Z,88.86
2018-02-21T02:19:01.520Z,88.95
2018-02-21T02:21:29.076Z,89.35
2018-02-21T02:23:57.703Z,89.72
2018-02-21T02:26:25.241Z,90.18
2018-02-21T02:28:52.954Z,90.12
2018-02-21T02:31:20.692Z,90.27
2018-02-21T02:33:48.233Z,90.53
2018-02-21T02:36:15.779Z,90.72
2018-02-21T02:38:55.375Z,90.75
2018-02-21T02:41:22.932Z,90.94
2018-02-21T02:43:50.478Z,91.04
2018-02-21T02:46:18.068Z,91.15
2018-02-21T02:48:45.669Z,91.21
2018-02-21T02:51:13.243Z,91.28
2018-02-21T02:53:40.873Z,91.16
2018-02-21T02:56:08.434Z,91.10
2018-02-21T02:58:35.986Z,91.11
2018-02-21T03:01:03.563Z,90.99
2018-02-21T03:03:31.110Z,91.07
2018-02-21T03:05:58.643Z,91.02
2018-02-21T03:08:26.515Z,91.04
2018-02-21T03:10:54.054Z,91.04
2018-02-21T03:13:21.594Z,91.18
2018-02-21T03:15:49.328Z,91.11
2018-02-21T03:18:16.880Z,91.20
2018-02-21T03:20:44.433Z,91.37
2018-02-21T03:23:12.013Z,91.54
2018-02-21T03:25:39.551Z,91.52
2018-02-21T03:28:07.081Z,91.65
2018-02-21T03:30:34.670Z,91.76
2018-02-21T03:33:02.251Z,91.86
2018-02-21T03:35:29.795Z,91.93
2018-02-21T03:37:57.470Z,92.12
2018-02-21T03:40:25.014Z,92.08
2018-02-21T03:42:52.563Z,91.92
2018-02-21T03:45:20.187Z,92.13
2018-02-21T03:47:47.718Z,92.14
2018-02-21T03:50:15.268Z,92.07
2018-02-21T03:52:42.864Z,92.10
2018-02-21T03:55:10.411Z,92.02
2018-02-21T03:57:37.960Z,92.16
2018-02-21T04:00:05.665Z,92.25
2018-02-21T04:02:33.217Z,92.21
2018-02-21T04:05:00.761Z,92.10
2018-02-21T04:07:28.813Z,92.08
2018-02-21T04:09:56.361Z,92.19
2018-02-21T04:12:23.925Z,92.04
2018-02-21T04:14:51.691Z,91.87
2018-02-21T04:17:19.283Z,91.83
2018-02-21T04:19:46.823Z,91.96
2018-02-21T04:22:14.527Z,92.01
2018-02-21T04:24:42.079Z,92.02
2018-02-21T04:27:09.627Z,91.98
2018-02-21T04:29:37.195Z,91.63
2018-02-21T04:32:04.759Z,91.90
2018-02-21T04:34:32.310Z,91.73
2018-02-21T04:37:00.174Z,91.29
2018-02-21T04:39:27.713Z,91.18
2018-02-21T04:41:55.251Z,90.88
2018-02-21T04:44:22.979Z,90.90
2018-02-21T04:46:50.524Z,90.60
2018-02-21T04:49:18.065Z,90.59
2018-02-21T04:51:45.654Z,90.54
2018-02-21T04:54:13.240Z,90.49
2018-02-21T04:56:49.574Z,90.83
2018-02-21T04:59:21.829Z,91.00
2018-02-21T05:01:49.418Z,90.84
2018-02-21T05:04:17.295Z,90.86
2018-02-21T05:06:44.843Z,90.81
2018-02-21T05:09:12.391Z,90.82
2018-02-21T05:11:40.074Z,90.71
2018-02-21T05:14:07.620Z,90.65
2018-02-21T05:16:35.199Z,90.46
2018-02-21T05:19:02.753Z,90.14
2018-02-21T05:21:30.299Z,89.84
2018-02-21T05:23:57.886Z,89.77
2018-02-21T05:26:25.450Z,90.06
2018-02-21T05:28:53.010Z,89.92
2018-02-21T05:31:20.593Z,89.80
2018-02-21T05:33:48.164Z,89.81
2018-02-21T05:36:15.750Z,89.58
2018-02-21T05:38:43.626Z,89.34
2018-02-21T05:41:11.182Z,89.36
2018-02-21T05:43:38.724Z,88.73
2018-02-21T05:46:06.302Z,88.46
2018-02-21T05:48:33.854Z,88.44
2018-02-21T05:51:01.384Z,88.10
2018-02-21T05:53:29.112Z,88.16
2018-02-21T05:55:56.668Z,87.62
2018-02-21T05:58:24.816Z,87.61
2018-02-21T06:00:52.490Z,87.00
2018-02-21T06:03:20.051Z,87.59
2018-02-21T06:05:47.600Z,87.23
2018-02-21T06:08:15.206Z,87.10
2018-02-21T06:10:42.741Z,86.59
2018-02-21T06:13:10.285Z,86.54
2018-02-21T06:15:37.862Z,86.22
2018-02-21T06:18:05.395Z,86.06
2018-02-21T06:20:32.947Z,85.48
2018-02-21T06:23:00.696Z,84.87
2018-02-21T06:25:28.255Z,84.87
2018-02-21T06:27:55.814Z,84.00
2018-02-21T06:30:23.430Z,84.02
2018-02-21T06:32:50.967Z,83.18
2018-02-21T06:35:18.524Z,83.29
2018-02-21T06:37:46.102Z,82.39
2018-02-21T06:40:13.643Z,81.64
2018-02-21T06:42:41.194Z,81.84
2018-02-21T06:45:08.941Z,81.90
2018-02-21T06:47:36.493Z,80.72
2018-02-21T06:50:04.080Z,80.05
2018-02-21T06:52:31.658Z,80.11
2018-02-21T06:54:59.213Z,79.49
2018-02-21T06:57:26.745Z,79.56
2018-02-21T06:59:54.335Z,78.00
2018-02-21T07:02:33.531Z,77.26
2018-02-21T07:05:01.130Z,77.63
2018-02-21T07:07:28.723Z,77.16
2018-02-21T07:09:56.280Z,77.92
2018-02-21T07:12:23.877Z,77.53
2018-02-21T07:14:51.467Z,77.58
2018-02-21T07:17:19.027Z,77.85
2018-02-21T07:19:46.628Z,77.70
2018-02-21T07:22:14.190Z,77.74
2018-02-21T07:24:41.779Z,78.20
2018-02-21T07:27:09.374Z,76.11
2018-02-21T07:29:36.915Z,77.21
2018-02-21T07:32:04.463Z,77.04
2018-02-21T07:34:32.057Z,77.79
2018-02-21T07:36:59.621Z,76.99
2018-02-21T07:39:27.166Z,77.76
2018-02-21T07:41:54.920Z,76.33
2018-02-21T07:44:22.500Z,77.05
2018-02-21T07:46:50.034Z,75.81
2018-02-21T07:49:17.617Z,76.09
2018-02-21T07:51:45.162Z,75.89
2018-02-21T07:54:12.738Z,75.83
2018-02-21T07:56:40.340Z,75.60
2018-02-21T07:59:07.883Z,75.43
2018-02-21T08:01:35.427Z,74.83
2018-02-21T08:04:02.995Z,74.35
2018-02-21T08:06:30.552Z,74.89
2018-02-21T08:08:58.114Z,73.10
2018-02-21T08:11:25.983Z,73.70
2018-02-21T08:13:53.538Z,73.36
2018-02-21T08:16:21.083Z,72.86
2018-02-21T08:18:48.620Z,72.59
2018-02-21T08:21:16.192Z,71.73
2018-02-21T08:23:43.758Z,71.26
2018-02-21T08:26:11.307Z,71.05
2018-02-21T08:28:38.846Z,71.58
2018-02-21T08:31:06.428Z,70.17
2018-02-21T08:33:34.009Z,70.89
2018-02-21T08:36:01.559Z,69.84
2018-02-21T08:38:29.152Z,70.38
2018-02-21T08:40:56.712Z,69.98
2018-02-21T08:43:24.834Z,68.92
2018-02-21T08:45:52.590Z,68.85
2018-02-21T08:48:20.174Z,69.50
2018-02-21T08:50:47.733Z,69.23
2018-02-21T08:53:15.347Z,69.48
2018-02-21T08:55:42.900Z,69.74
2018-02-21T08:58:10.474Z,68.71
2018-02-21T09:00:38.045Z,68.98
2018-02-21T09:03:05.599Z,68.06
2018-02-21T09:05:33.176Z,68.40
2018-02-21T09:08:00.751Z,68.84
2018-02-21T09:10:28.299Z,68.04
2018-02-21T09:12:55.836Z,67.82
2018-02-21T09:15:23.519Z,67.85
2018-02-21T09:17:51.057Z,67.91
2018-02-21T09:20:18.607Z,67.63
2018-02-21T09:22:46.345Z,67.36
2018-02-21T09:25:13.904Z,67.47
2018-02-21T09:27:41.461Z,67.80
2018-02-21T09:30:09.152Z,66.97
2018-02-21T09:32:36.713Z,68.23
2018-02-21T09:35:04.271Z,68.29
2018-02-21T09:37:31.997Z,69.08
2018-02-21T09:39:59.545Z,69.11
2018-02-21T09:42:27.094Z,68.89
2018-02-21T09:44:54.834Z,69.52
2018-02-21T09:47:22.378Z,69.22
2018-02-21T09:49:49.930Z,69.29
2018-02-21T09:52:17.508Z,69.26
2018-02-21T09:54:45.050Z,69.60
2018-02-21T09:57:12.603Z,69.56
2018-02-21T09:59:40.197Z,69.89
2018-02-21T10:02:07.735Z,68.81
2018-02-21T10:04:35.273Z,68.92
2018-02-21T10:07:03.135Z,69.02
2018-02-21T10:09:30.703Z,68.64
2018-02-21T10:11:58.272Z,68.58
2018-02-21T10:14:26.791Z,68.64
2018-02-21T10:16:54.343Z,69.41
2018-02-21T10:19:21.879Z,69.69
2018-02-21T10:21:49.540Z,68.61
2018-02-21T10:24:17.108Z,68.25
2018-02-21T10:26:44.721Z,69.28
2018-02-21T10:29:12.305Z,68.63
2018-02-21T10:31:39.849Z,68.89
2018-02-21T10:34:07.426Z,68.60
2018-02-21T10:36:35.297Z,68.54
2018-02-21T10:39:02.871Z,67.67
2018-02-21T10:41:30.427Z,67.19
2018-02-21T10:43:58.014Z,66.80
2018-02-21T10:46:25.567Z,66.79
2018-02-21T10:48:53.110Z,66.89
2018-02-21T10:51:21.721Z,67.30
2018-02-21T10:53:49.274Z,67.52
2018-02-21T10:56:16.850Z,68.18
2018-02-21T10:58:44.528Z,66.46
2018-02-21T11:01:17.514Z,66.36
2018-02-21T11:03:45.088Z,67.28
2018-02-21T11:06:12.647Z,67.94
2018-02-21T11:08:40.210Z,67.05
2018-02-21T11:11:07.943Z,67.82
2018-02-21T11:13:35.507Z,68.22
2018-02-21T11:16:03.058Z,67.04
2018-02-21T11:18:30.610Z,66.97
2018-02-21T11:20:58.160Z,67.38
2018-02-21T11:23:25.891Z,66.48
2018-02-21T11:25:53.426Z,66.10
2018-02-21T11:28:20.965Z,66.40
2018-02-21T11:30:48.648Z,66.23
2018-02-21T11:33:16.195Z,65.65
2018-02-21T11:35:43.769Z,65.47
2018-02-21T11:38:11.356Z,66.37
2018-02-21T11:40:38.947Z,65.72
2018-02-21T11:43:06.496Z,66.72
2018-02-21T11:45:34.081Z,66.47
2018-02-21T11:48:01.623Z,67.49
2018-02-21T11:50:29.163Z,66.44
2018-02-21T11:52:56.746Z,65.89
2018-02-21T11:55:24.283Z,65.72
2018-02-21T11:57:51.829Z,66.50
2018-02-21T12:00:19.501Z,66.65
2018-02-21T12:02:47.099Z,67.46
2018-02-21T12:05:14.643Z,68.31
2018-02-21T12:07:42.329Z,69.32
2018-02-21T12:10:09.878Z,71.33
2018-02-21T12:12:37.414Z,71.27
2018-02-21T12:15:05.042Z,71.48
2018-02-21T12:17:32.598Z,70.93
2018-02-21T12:20:00.162Z,72.02
2018-02-21T12:22:27.756Z,72.22
2018-02-21T12:24:55.358Z,72.84
2018-02-21T12:27:23.110Z,73.92
2018-02-21T12:29:50.782Z,73.80
2018-02-21T12:32:19.131Z,72.63
2018-02-21T12:34:46.698Z,72.39
2018-02-21T12:37:14.307Z,71.19
2018-02-21T12:39:41.879Z,71.48
2018-02-21T12:42:09.425Z,70.80
2018-02-21T12:44:37.427Z,70.67
2018-02-21T12:47:05.032Z,71.97
2018-02-21T12:49:32.595Z,73.50
2018-02-21T12:52:00.173Z,74.03
2018-02-21T12:54:27.725Z,73.71
2018-02-21T12:56:55.273Z,73.43
2018-02-21T12:59:23.069Z,73.64
2018-02-21T13:01:50.605Z,73.31
2018-02-21T13:04:18.168Z,72.81
2018-02-21T13:06:45.751Z,72.69
2018-02-21T13:09:13.335Z,72.80
2018-02-21T13:11:40.903Z,72.72
2018-02-21T13:14:08.487Z,73.31
2018-02-21T13:16:36.028Z,74.49
2018-02-21T13:19:03.578Z,74.60
2018-02-21T13:21:31.270Z,74.86
2018-02-21T13:23:58.819Z,76.05
2018-02-21T13:26:26.362Z,76.42
2018-02-21T13:28:53.957Z,76.76
2018-02-21T13:31:21.520Z,76.94
2018-02-21T13:33:49.084Z,77.69
2018-02-21T13:36:16.688Z,77.64
2018-02-21T13:38:44.244Z,77.57
2018-02-21T13:41:11.789Z,78.33
2018-02-21T13:43:39.747Z,78.46
2018-02-21T13:46:07.309Z,78.80
2018-02-21T13:48:34.873Z,78.82
2018-02-21T13:51:02.933Z,79.49
2018-02-21T13:53:30.501Z,79.30
2018-02-21T13:55:58.061Z,79.15
2018-02-21T13:58:25.947Z,78.95
2018-02-21T14:00:53.507Z,79.66
2018-02-21T14:03:21.067Z,80.94
2018-02-21T14:05:48.777Z,81.68
2018-02-21T14:08:16.330Z,81.37
2018-02-21T14:10:43.882Z,81.63
2018-02-21T14:13:12.111Z,81.71
2018-02-21T14:15:39.681Z,82.18
2018-02-21T14:18:07.406Z,82.54
2018-02-21T14:20:35.130Z,82.79
2018-02-21T14:23:02.688Z,82.18
2018-02-21T14:25:30.234Z,82.54
2018-02-21T14:27:57.834Z,82.56
2018-02-21T14:30:25.397Z,82.22
2018-02-21T14:32:52.964Z,82.47
2018-02-21T14:35:20.548Z,81.90
2018-02-21T14:37:48.139Z,82.45
2018-02-21T14:40:15.716Z,82.97
2018-02-21T14:42:43.408Z,83.34
2018-02-21T14:45:10.987Z,83.35
2018-02-21T14:47:38.535Z,83.70
2018-02-21T14:50:06.228Z,84.06
2018-02-21T14:52:33.785Z,84.25
2018-02-21T14:55:01.335Z,84.32
2018-02-21T14:57:29.080Z,84.16
2018-02-21T14:59:56.652Z,84.53
2018-02-21T15:02:24.206Z,84.61
2018-02-21T15:04:51.943Z,84.62
2018-02-21T15:07:19.530Z,84.88
2018-02-21T15:09:47.117Z,84.91
2018-02-21T15:12:14.706Z,84.94
2018-02-21T15:14:42.268Z,85.17
2018-02-21T15:17:09.828Z,85.18
2018-02-21T15:19:37.379Z,85.24
2018-02-21T15:22:04.931Z,85.73
2018-02-21T15:24:32.519Z,86.04
2018-02-21T15:27:00.083Z,86.03
2018-02-21T15:29:27.647Z,85.94
2018-02-21T15:31:55.563Z,85.93
2018-02-21T15:34:23.107Z,86.34
2018-02-21T15:36:50.674Z,86.27
2018-02-21T15:39:18.370Z,86.42
2018-02-21T15:41:45.920Z,85.83
2018-02-21T15:44:13.501Z,85.58
2018-02-21T15:46:41.291Z,85.32
2018-02-21T15:49:08.865Z,85.49
2018-02-21T15:51:36.421Z,85.60
2018-02-21T15:54:04.300Z,85.79
2018-02-21T15:56:31.857Z,85.75
2018-02-21T15:58:59.423Z,86.24
2018-02-21T16:01:27.028Z,86.22
2018-02-21T16:03:54.596Z,86.32
2018-02-21T16:06:22.162Z,86.39
2018-02-21T16:08:49.772Z,86.47
2018-02-21T16:11:17.325Z,86.65
2018-02-21T16:13:44.908Z,86.69
2018-02-21T16:16:12.661Z,86.40
2018-02-21T16:18:40.231Z,86.41
2018-02-21T16:21:07.773Z,86.64
2018-02-21T16:23:35.393Z,86.47
2018-02-21T16:26:02.946Z,86.37
2018-02-21T16:28:30.509Z,86.19
2018-02-21T16:30:59.124Z,86.20
2018-02-21T16:33:26.666Z,86.54
2018-02-21T16:35:54.206Z,86.58
2018-02-21T16:38:21.930Z,86.54
2018-02-21T16:40:49.480Z,86.55
2018-02-21T16:43:17.025Z,86.76
2018-02-21T16:45:44.732Z,86.78
2018-02-21T16:48:12.285Z,86.58
2018-02-21T16:50:39.835Z,86.31
2018-02-21T16:53:07.706Z,86.06
2018-02-21T16:55:35.273Z,86.42
2018-02-21T16:58:02.831Z,85.78
2018-02-21T17:00:30.419Z,85.49
2018-02-21T17:02:57.985Z,85.83
2018-02-21T17:05:25.542Z,85.16
2018-02-21T17:07:53.227Z,85.01
2018-02-21T17:10:21.642Z,85.27
2018-02-21T17:12:49.237Z,85.15
2018-02-21T17:15:17.024Z,84.61
2018-02-21T17:17:44.594Z,84.88
2018-02-21T17:20:12.178Z,84.84
2018-02-21T17:22:40.003Z,84.97
2018-02-21T17:25:07.589Z,83.91
2018-02-21T17:27:35.194Z,84.25
2018-02-21T17:30:02.803Z,84.47
2018-02-21T17:32:30.366Z,84.61
2018-02-21T17:34:57.991Z,84.76
2018-02-21T17:37:25.602Z,84.29
2018-02-21T17:39:53.167Z,84.69
2018-02-21T17:42:20.745Z,85.34
2018-02-21T17:44:48.374Z,85.42
2018-02-21T17:47:15.968Z,85.30
2018-02-21T17:49:43.525Z,85.29
2018-02-21T17:52:11.140Z,85.09
2018-02-21T17:54:38.714Z,85.35
2018-02-21T17:57:06.268Z,85.23
2018-02-21T17:59:34.048Z,84.76
2018-02-21T18:02:01.630Z,84.42
2018-02-21T18:04:29.185Z,84.39
2018-02-21T18:06:56.800Z,84.30
2018-02-21T18:09:24.397Z,84.51
2018-02-21T18:11:51.979Z,84.41
2018-02-21T18:14:19.582Z,84.31
2018-02-21T18:16:47.162Z,84.38
2018-02-21T18:19:14.731Z,84.30
2018-02-21T18:21:47.799Z,84.06
2018-02-21T18:24:15.371Z,83.84
2018-02-21T18:26:42.918Z,83.71
2018-02-21T18:29:10.695Z,83.55
2018-02-21T18:31:38.260Z,82.71
2018-02-21T18:34:05.841Z,82.04
2018-02-21T18:36:33.542Z,81.48
2018-02-21T18:39:01.096Z,81.65
2018-02-21T18:41:28.648Z,82.17
2018-02-21T18:43:56.558Z,81.68
2018-02-21T18:46:24.136Z,81.29
2018-02-21T18:48:51.784Z,81.22
2018-02-21T18:51:19.373Z,81.44
2018-02-21T18:53:47.005Z,81.71
2018-02-21T18:56:14.675Z,81.35
2018-02-21T18:58:42.703Z,81.43
2018-02-21T19:01:10.617Z,81.50
2018-02-21T19:03:38.215Z,81.67
2018-02-21T19:06:06.253Z,81.57
2018-02-21T19:08:33.983Z,81.07
2018-02-21T19:11:01.651Z,81.45
2018-02-21T19:13:29.373Z,81.69
2018-02-21T19:15:56.957Z,81.75
2018-02-21T19:18:24.612Z,81.87
2018-02-21T19:20:52.344Z,82.10
2018-02-21T19:23:19.932Z,82.07
2018-02-21T19:25:47.567Z,82.06
2018-02-21T19:28:15.371Z,81.40
2018-02-21T19:30:43.094Z,81.27
2018-02-21T19:33:10.902Z,81.31
2018-02-21T19:35:39.434Z,80.85
2018-02-21T19:38:07.347Z,80.69
2018-02-21T19:40:35.037Z,81.04
2018-02-21T19:43:02.749Z,81.41
2018-02-21T19:45:30.428Z,81.27
2018-02-21T19:47:58.084Z,81.42
2018-02-21T19:50:26.003Z,81.70
2018-02-21T19:52:53.727Z,82.14
2018-02-21T19:55:21.355Z,81.96
2018-02-21T19:57:48.993Z,82.06
2018-02-21T20:00:16.623Z,82.03
2018-02-21T20:02:44.243Z,82.39
2018-02-21T20:05:11.922Z,82.57
2018-02-21T20:07:39.543Z,82.55
2018-02-21T20:10:07.172Z,82.63
2018-02-21T20:12:34.808Z,82.84
2018-02-21T20:15:02.406Z,82.71
2018-02-21T20:17:29.981Z,82.76
2018-02-21T20:19:57.556Z,82.78
2018-02-21T20:22:25.112Z,82.45
2018-02-21T20:24:53.043Z,82.60
2018-02-21T20:27:20.642Z,82.63
2018-02-21T20:29:48.235Z,82.48
2018-02-21T20:32:16.019Z,82.71
2018-02-21T20:34:43.627Z,83.11
2018-02-21T20:37:11.206Z,82.95
2018-02-21T20:39:38.810Z,82.39
2018-02-21T20:42:06.406Z,81.98
2018-02-21T20:44:33.996Z,82.02
2018-02-21T20:47:01.799Z,82.00
2018-02-21T20:49:29.341Z,82.26
2018-02-21T20:51:56.903Z,82.16
2018-02-21T20:54:24.653Z,82.15
2018-02-21T20:56:52.226Z,81.78
2018-02-21T20:59:19.774Z,81.80
2018-02-21T21:01:47.502Z,82.19
2018-02-21T21:04:15.065Z,82.61
2018-02-21T21:06:42.630Z,83.04
2018-02-21T21:09:10.228Z,83.03
2018-02-21T21:11:37.802Z,83.32
2018-02-21T21:14:05.360Z,82.97
2018-02-21T21:16:32.951Z,83.13
2018-02-21T21:19:00.507Z,83.79
2018-02-21T21:21:28.051Z,84.60
2018-02-21T21:23:55.728Z,84.81
2018-02-21T21:26:23.276Z,85.03
2018-02-21T21:28:50.821Z,85.03
2018-02-21T21:31:18.415Z,85.53
2018-02-21T21:33:46.000Z,85.75
2018-02-21T21:36:13.556Z,85.96
2018-02-21T21:38:41.286Z,85.77
2018-02-21T21:41:08.835Z,85.45
2018-02-21T21:43:36.383Z,85.52
2018-02-21T21:46:03.968Z,85.86
2018-02-21T21:48:31.519Z,86.14
2018-02-21T21:50:59.083Z,86.66
2018-02-21T21:53:26.834Z,86.71
2018-02-21T21:55:54.379Z,86.83
2018-02-21T21:58:21.924Z,85.68
2018-02-21T22:00:49.569Z,86.90
2018-02-21T22:03:17.130Z,87.33
2018-02-21T22:05:44.698Z,87.65
2018-02-21T22:08:12.281Z,87.84
2018-02-21T22:10:39.826Z,88.06
2018-02-21T22:13:07.372Z,87.98
2018-02-21T22:15:34.959Z,87.49
2018-02-21T22:18:02.486Z,87.57
2018-02-21T22:20:30.093Z,87.60
2018-02-21T22:22:57.674Z,87.56
2018-02-21T22:25:25.225Z,87.59
2018-02-21T22:27:52.783Z,87.41
2018-02-21T22:30:20.393Z,87.34
2018-02-21T22:32:47.929Z,87.35
2018-02-21T22:35:15.463Z,87.53
2018-02-21T22:37:43.324Z,87.46
2018-02-21T22:40:10.870Z,87.37
2018-02-21T22:42:38.420Z,87.68
2018-02-21T22:45:06.303Z,87.74
2018-02-21T22:47:33.838Z,87.52
2018-02-21T22:50:01.389Z,87.38
2018-02-21T22:52:29.110Z,87.22
2018-02-21T22:54:56.659Z,86.86
2018-02-21T22:57:24.194Z,86.83
2018-02-21T22:59:51.920Z,86.37
2018-02-21T23:02:19.461Z,86.52
2018-02-21T23:04:47.046Z,86.67
2018-02-21T23:07:14.672Z,86.40
2018-02-21T23:09:42.213Z,85.82
2018-02-21T23:12:09.808Z,85.71
2018-02-21T23:14:37.356Z,85.70
2018-02-21T23:17:04.904Z,85.62
2018-02-21T23:19:32.447Z,85.75
2018-02-21T23:22:00.173Z,85.72
2018-02-21T23:24:27.727Z,85.37
2018-02-21T23:26:55.269Z,85.30
2018-02-21T23:29:22.994Z,85.25
2018-02-21T23:31:50.552Z,85.39
2018-02-21T23:34:18.095Z,85.34
2018-02-21T23:36:45.966Z,85.66
2018-02-21T23:39:13.506Z,85.66
2018-02-21T23:41:41.044Z,85.77
2018-02-21T23:44:08.778Z,85.83
2018-02-21T23:46:36.305Z,85.96
2018-02-21T23:49:03.865Z,86.05
2018-02-21T23:51:31.449Z,86.12
2018-02-21T23:53:59.031Z,86.07
2018-02-21T23:56:26.553Z,85.79
2018-02-21T23:58:54.114Z,85.56
